createdAt,value
2023-01-08T00:00:41.169Z,34.00
2023-01-08T00:04:03.861Z,34.00
2023-01-08T00:07:06.816Z,35.67
2023-01-08T00:10:09.549Z,36.00
2023-01-08T00:13:13.006Z,32.00
2023-01-08T00:16:17.682Z,34.00
2023-01-08T00:19:20.726Z,33.33
2023-01-08T00:22:23.198Z,33.33
2023-01-08T00:25:26.165Z,31.00
2023-01-08T00:28:29.049Z,32.00
2023-01-08T00:31:32.069Z,32.33
2023-01-08T00:34:34.630Z,33.00
2023-01-08T00:37:37.439Z,34.00
2023-01-08T00:40:40.862Z,33.67
2023-01-08T00:43:43.866Z,32.33
2023-01-08T00:46:46.484Z,34.67
2023-01-08T00:49:49.452Z,33.33
2023-01-08T00:52:52.121Z,34.00
2023-01-08T00:56:09.730Z,33.33
2023-01-08T00:59:12.395Z,32.67
2023-01-08T01:02:15.490Z,32.33
2023-01-08T01:05:18.193Z,32.33
2023-01-08T01:08:20.990Z,33.33
2023-01-08T01:11:26.574Z,33.33
2023-01-08T01:14:29.392Z,34.33
2023-01-08T01:17:32.341Z,31.67
2023-01-08T01:20:35.434Z,32.33
2023-01-08T01:23:37.878Z,31.67
2023-01-08T01:26:41.679Z,31.67
2023-01-08T01:29:44.297Z,31.67
2023-01-08T01:32:47.087Z,32.00
2023-01-08T01:35:49.710Z,33.00
2023-01-08T01:38:55.822Z,30.00
2023-01-08T01:41:58.524Z,31.67
2023-01-08T01:45:01.816Z,11.33
2023-01-08T01:48:10.057Z,30.00
2023-01-08T01:51:13.013Z,31.00
2023-01-08T01:54:17.247Z,25.33
2023-01-08T01:57:20.263Z,32.33
2023-01-08T02:00:23.707Z,30.33
2023-01-08T02:03:30.430Z,31.00
2023-01-08T02:06:38.980Z,32.33
2023-01-08T02:09:52.715Z,26.33
2023-01-08T02:12:59.627Z,29.00
2023-01-08T02:16:18.275Z,30.67
2023-01-08T02:19:36.021Z,30.00
2023-01-08T02:22:49.427Z,29.67
2023-01-08T02:26:04.300Z,26.33
2023-01-08T02:29:10.321Z,32.00
2023-01-08T02:32:12.811Z,31.33
2023-01-08T02:35:16.020Z,30.67
2023-01-08T02:38:19.021Z,29.67
2023-01-08T02:41:24.637Z,30.67
2023-01-08T02:44:45.147Z,29.00
2023-01-08T02:48:15.669Z,28.33
2023-01-08T02:51:31.676Z,29.00
2023-01-08T02:54:36.194Z,29.00
2023-01-08T02:57:38.995Z,29.00
2023-01-08T03:00:43.029Z,29.33
2023-01-08T03:03:50.919Z,29.00
2023-01-08T03:06:54.033Z,26.00
2023-01-08T03:09:56.425Z,27.33
2023-01-08T03:13:06.900Z,29.00
2023-01-08T03:16:13.123Z,29.00
2023-01-08T03:19:17.472Z,29.00
2023-01-08T03:22:20.812Z,29.00
2023-01-08T03:25:25.553Z,27.67
2023-01-08T03:28:33.241Z,27.67
2023-01-08T03:31:36.559Z,29.00
2023-01-08T03:34:42.170Z,29.00
2023-01-08T03:37:50.010Z,30.00
2023-01-08T03:40:56.348Z,29.00
2023-01-08T03:43:59.266Z,26.67
2023-01-08T03:47:03.467Z,27.67
2023-01-08T03:50:12.679Z,24.33
2023-01-08T03:53:15.525Z,25.67
2023-01-08T03:56:18.409Z,25.33
2023-01-08T03:59:21.091Z,23.00
2023-01-08T04:02:24.157Z,24.67
2023-01-08T04:05:26.788Z,23.00
2023-01-08T04:08:29.874Z,22.00
2023-01-08T04:11:32.552Z,21.33
2023-01-08T04:14:35.630Z,20.00
2023-01-08T04:17:38.180Z,22.33
2023-01-08T04:20:41.097Z,22.00
2023-01-08T04:23:43.639Z,22.00
2023-01-08T04:26:46.632Z,22.00
2023-01-08T04:29:49.224Z,19.67
2023-01-08T04:32:52.266Z,20.00
2023-01-08T04:35:54.812Z,19.67
2023-01-08T04:38:57.678Z,22.67
2023-01-08T04:42:00.319Z,21.33
2023-01-08T04:45:03.288Z,20.67
2023-01-08T04:48:05.898Z,22.67
2023-01-08T04:51:08.997Z,19.67
2023-01-08T04:54:11.616Z,20.00
2023-01-08T04:57:14.799Z,21.67
2023-01-08T05:00:17.629Z,19.00
2023-01-08T05:03:20.616Z,19.00
2023-01-08T05:06:23.617Z,19.67
2023-01-08T05:09:26.557Z,20.33
2023-01-08T05:12:29.200Z,16.67
2023-01-08T05:15:32.112Z,19.00
2023-01-08T05:18:34.715Z,20.00
2023-01-08T05:21:37.716Z,20.00
2023-01-08T05:24:40.331Z,18.67
2023-01-08T05:27:43.622Z,17.00
2023-01-08T05:30:46.356Z,17.67
2023-01-08T05:33:49.732Z,17.00
2023-01-08T05:36:52.312Z,18.33
2023-01-08T05:39:55.192Z,17.00
2023-01-08T05:43:00.206Z,19.00
2023-01-08T05:46:04.218Z,16.00
2023-01-08T05:49:07.107Z,18.67
2023-01-08T05:52:09.938Z,17.67
2023-01-08T05:55:12.519Z,18.00
2023-01-08T05:58:19.459Z,19.00
2023-01-08T06:01:22.189Z,18.67
2023-01-08T06:04:25.351Z,17.33
2023-01-08T06:07:29.827Z,20.67
2023-01-08T06:10:32.701Z,16.00
2023-01-08T06:13:35.981Z,17.00
2023-01-08T06:16:39.043Z,16.67
2023-01-08T06:19:41.609Z,16.33
2023-01-08T06:22:44.502Z,16.33
2023-01-08T06:25:55.889Z,15.33
2023-01-08T06:28:58.786Z,18.33
2023-01-08T06:32:01.250Z,16.33
2023-01-08T06:35:04.519Z,15.00
2023-01-08T06:38:07.302Z,16.33
2023-01-08T06:41:11.488Z,17.33
2023-01-08T06:44:14.209Z,17.00
2023-01-08T06:47:17.532Z,16.33
2023-01-08T06:50:20.172Z,16.33
2023-01-08T06:53:23.312Z,14.67
2023-01-08T06:56:25.892Z,14.67
2023-01-08T06:59:28.883Z,14.67
2023-01-08T07:02:31.656Z,16.67
2023-01-08T07:05:36.208Z,16.33
2023-01-08T07:08:38.829Z,11.67
2023-01-08T07:11:42.193Z,14.33
2023-01-08T07:14:44.588Z,17.33
2023-01-08T07:17:47.928Z,17.33
2023-01-08T07:20:50.454Z,16.00
2023-01-08T07:23:53.302Z,17.33
2023-01-08T07:26:55.891Z,16.33
2023-01-08T07:29:59.263Z,16.67
2023-01-08T07:33:02.102Z,16.00
2023-01-08T07:36:05.485Z,16.00
2023-01-08T07:39:08.197Z,12.67
2023-01-08T07:42:11.150Z,16.33
2023-01-08T07:45:13.730Z,16.00
2023-01-08T07:48:16.778Z,16.33
2023-01-08T07:51:19.427Z,16.00
2023-01-08T07:54:22.582Z,15.67
2023-01-08T07:57:25.082Z,11.33
2023-01-08T08:00:28.355Z,16.00
2023-01-08T08:03:30.952Z,15.33
2023-01-08T08:06:34.083Z,16.33
2023-01-08T08:09:36.666Z,15.33
2023-01-08T08:12:39.643Z,16.00
2023-01-08T08:15:42.196Z,14.67
2023-01-08T08:18:45.186Z,14.00
2023-01-08T08:21:47.571Z,17.00
2023-01-08T08:24:50.346Z,16.67
2023-01-08T08:27:53.182Z,19.00
2023-01-08T08:30:56.352Z,17.00
2023-01-08T08:33:59.013Z,16.33
2023-01-08T08:37:01.925Z,16.00
2023-01-08T08:40:04.888Z,19.00
2023-01-08T08:43:09.970Z,18.67
2023-01-08T08:46:12.670Z,17.33
2023-01-08T08:49:15.821Z,15.33
2023-01-08T08:52:18.467Z,14.00
2023-01-08T08:55:21.640Z,16.33
2023-01-08T08:58:24.296Z,15.67
2023-01-08T09:01:27.400Z,15.67
2023-01-08T09:04:31.819Z,17.00
2023-01-08T09:07:34.851Z,8.00
2023-01-08T09:10:38.471Z,16.00
2023-01-08T09:13:41.419Z,16.00
2023-01-08T09:16:44.028Z,16.00
2023-01-08T09:19:46.974Z,15.33
2023-01-08T09:22:49.829Z,16.67
2023-01-08T09:26:00.570Z,18.33
2023-01-08T09:29:03.505Z,16.67
2023-01-08T09:32:07.575Z,14.00
2023-01-08T09:35:10.424Z,17.00
2023-01-08T09:38:13.619Z,17.00
2023-01-08T09:41:27.408Z,16.00
2023-01-08T09:44:37.419Z,16.67
2023-01-08T09:47:41.462Z,17.00
2023-01-08T09:50:44.687Z,17.00
2023-01-08T09:53:51.024Z,18.00
2023-01-08T09:56:54.948Z,16.00
2023-01-08T09:59:58.787Z,15.33
2023-01-08T10:03:01.956Z,14.67
2023-01-08T10:06:13.051Z,18.33
2023-01-08T10:09:16.032Z,17.33
2023-01-08T10:12:32.294Z,17.00
2023-01-08T10:15:35.366Z,14.00
2023-01-08T10:18:41.061Z,15.33
2023-01-08T10:21:44.210Z,14.67
2023-01-08T10:24:47.029Z,16.00
2023-01-08T10:28:16.104Z,14.00
2023-01-08T10:31:18.662Z,15.33
2023-01-08T10:34:40.620Z,15.33
2023-01-08T10:37:43.860Z,13.00
2023-01-08T10:40:49.258Z,17.00
2023-01-08T10:43:54.603Z,15.67
2023-01-08T10:47:00.506Z,14.00
2023-01-08T10:50:05.262Z,16.67
2023-01-08T10:53:25.127Z,15.33
2023-01-08T10:56:30.112Z,16.33
2023-01-08T10:59:36.763Z,17.33
2023-01-08T11:02:40.940Z,13.00
2023-01-08T11:05:44.197Z,16.33
2023-01-08T11:08:57.818Z,15.00
2023-01-08T11:12:01.463Z,15.00
2023-01-08T11:15:07.689Z,15.67
2023-01-08T11:18:17.280Z,17.33
2023-01-08T11:21:25.888Z,14.33
2023-01-08T11:24:32.604Z,19.33
2023-01-08T11:27:42.579Z,16.33
2023-01-08T11:30:54.464Z,17.33
2023-01-08T11:34:06.196Z,11.33
2023-01-08T11:37:23.247Z,20.00
2023-01-08T11:40:31.719Z,17.33
2023-01-08T11:44:09.315Z,18.67
2023-01-08T11:47:25.707Z,17.00
2023-01-08T11:50:33.380Z,20.00
2023-01-08T11:53:59.900Z,22.00
2023-01-08T11:57:13.838Z,20.67
2023-01-08T12:00:38.546Z,12.33
2023-01-08T12:03:52.537Z,16.67
2023-01-08T12:07:07.266Z,20.00
2023-01-08T12:10:34.716Z,21.33
2023-01-08T12:13:43.902Z,17.67
2023-01-08T12:16:58.951Z,21.67
2023-01-08T12:20:30.950Z,20.00
2023-01-08T12:23:52.506Z,21.00
2023-01-08T12:27:14.429Z,23.00
2023-01-08T12:30:51.738Z,21.67
2023-01-08T12:34:01.161Z,18.67
2023-01-08T12:37:14.327Z,22.33
2023-01-08T12:40:28.721Z,18.33
2023-01-08T12:43:37.929Z,15.67
2023-01-08T12:46:46.367Z,21.33
2023-01-08T12:50:01.035Z,21.67
2023-01-08T12:53:09.100Z,20.00
2023-01-08T12:56:18.541Z,23.67
2023-01-08T12:59:45.478Z,21.33
2023-01-08T13:03:03.124Z,22.00
2023-01-08T13:06:13.315Z,17.33
2023-01-08T13:09:24.638Z,22.33
2023-01-08T13:12:35.210Z,21.67
2023-01-08T13:15:38.176Z,21.00
2023-01-08T13:18:41.224Z,20.33
2023-01-08T13:21:52.191Z,25.67
2023-01-08T13:25:08.971Z,23.67
2023-01-08T13:28:32.038Z,20.33
2023-01-08T13:31:43.961Z,25.67
2023-01-08T13:34:46.863Z,22.00
2023-01-08T13:38:10.946Z,21.67
2023-01-08T13:41:28.656Z,26.00
2023-01-08T13:44:37.049Z,20.67
2023-01-08T13:47:43.868Z,25.67
2023-01-08T13:50:47.189Z,23.67
2023-01-08T13:53:50.057Z,23.00
2023-01-08T13:56:55.326Z,25.33
2023-01-08T13:59:59.672Z,23.33
2023-01-08T14:03:02.711Z,25.33
2023-01-08T14:06:14.053Z,26.00
2023-01-08T14:09:23.862Z,24.33
2023-01-08T15:08:44.718Z,22.67
2023-01-08T15:23:47.633Z,22.67
2023-01-08T15:27:30.251Z,27.00
2023-01-08T15:30:58.781Z,27.00
2023-01-08T15:34:01.509Z,27.67
2023-01-08T15:43:10.057Z,27.33
2023-01-08T16:05:17.751Z,28.00
2023-01-08T20:01:06.490Z,28.67
2023-01-08T20:04:14.884Z,32.00
2023-01-08T20:07:19.145Z,29.00
2023-01-08T20:47:48.544Z,32.33
